createdAt,value
2024-05-09T00:01:53.276Z,21.90
2024-05-09T00:04:23.741Z,21.87
2024-05-09T00:06:54.116Z,21.86
2024-05-09T00:09:24.210Z,21.85
2024-05-09T00:11:57.184Z,21.84
2024-05-09T00:14:28.458Z,21.81
2024-05-09T00:16:59.389Z,21.80
2024-05-09T00:19:30.089Z,21.79
2024-05-09T00:22:00.434Z,21.77
2024-05-09T00:24:30.588Z,21.76
2024-05-09T00:27:03.941Z,21.74
2024-05-09T00:29:34.111Z,21.72
2024-05-09T00:32:04.419Z,21.71
2024-05-09T00:34:34.933Z,21.71
2024-05-09T00:37:05.089Z,21.65
2024-05-09T00:39:35.284Z,21.63
2024-05-09T00:42:08.255Z,21.63
2024-05-09T00:44:38.797Z,21.61
2024-05-09T00:47:09.338Z,21.58
2024-05-09T00:49:39.772Z,21.58
2024-05-09T00:52:10.261Z,21.54
2024-05-09T00:54:40.542Z,21.52
2024-05-09T00:57:13.654Z,21.53
2024-05-09T00:59:44.092Z,21.51
2024-05-09T01:02:14.793Z,21.49
2024-05-09T01:04:45.143Z,21.48
2024-05-09T01:07:16.092Z,21.47
2024-05-09T01:09:46.264Z,21.45
2024-05-09T01:12:19.769Z,21.44
2024-05-09T01:14:50.375Z,21.43
2024-05-09T01:17:20.714Z,21.41
2024-05-09T01:19:51.116Z,21.40
2024-05-09T01:22:22.097Z,21.38
2024-05-09T01:24:55.114Z,21.39
2024-05-09T01:27:25.698Z,21.34
2024-05-09T01:29:55.943Z,21.34
2024-05-09T01:32:26.521Z,21.33
2024-05-09T01:34:57.041Z,21.33
2024-05-09T01:37:27.498Z,21.31
2024-05-09T01:40:00.550Z,21.32
2024-05-09T01:42:30.724Z,21.28
2024-05-09T01:45:00.867Z,21.27
2024-05-09T01:47:31.146Z,21.26
2024-05-09T01:50:01.551Z,21.25
2024-05-09T01:52:31.833Z,21.25
2024-05-09T01:55:06.504Z,21.22
2024-05-09T01:57:37.113Z,21.20
2024-05-09T02:00:10.497Z,21.18
2024-05-09T02:02:42.052Z,21.18
2024-05-09T02:05:12.373Z,21.15
2024-05-09T02:07:42.602Z,21.15
2024-05-09T02:10:20.467Z,21.14
2024-05-09T02:12:56.259Z,21.12
2024-05-09T02:15:26.690Z,21.10
2024-05-09T02:17:57.106Z,21.08
2024-05-09T02:20:34.039Z,21.07
2024-05-09T02:23:07.666Z,21.05
2024-05-09T02:25:40.655Z,21.03
2024-05-09T02:28:10.831Z,21.01
2024-05-09T02:30:42.387Z,20.99
2024-05-09T02:33:14.527Z,20.97
2024-05-09T02:35:45.162Z,20.97
2024-05-09T02:38:13.237Z,20.95
2024-05-09T02:40:46.401Z,20.95
2024-05-09T02:43:14.036Z,20.91
2024-05-09T02:45:44.640Z,20.91
2024-05-09T02:48:13.636Z,20.88
2024-05-09T02:50:44.940Z,20.87
2024-05-09T02:53:13.314Z,20.85
2024-05-09T02:55:46.417Z,20.84
2024-05-09T02:58:13.998Z,20.82
2024-05-09T03:00:44.092Z,20.79
2024-05-09T03:03:14.339Z,20.78
2024-05-09T03:05:46.649Z,20.76
2024-05-09T03:08:14.951Z,20.75
2024-05-09T03:10:47.834Z,20.73
2024-05-09T03:13:16.369Z,20.70
2024-05-09T03:15:47.085Z,20.69
2024-05-09T03:18:15.988Z,20.68
2024-05-09T03:20:46.429Z,20.65
2024-05-09T03:23:14.370Z,20.64
2024-05-09T03:25:47.191Z,20.63
2024-05-09T03:28:14.748Z,20.61
2024-05-09T03:30:44.811Z,20.60
2024-05-09T03:33:17.819Z,20.58
2024-05-09T03:35:47.708Z,20.56
2024-05-09T03:38:18.884Z,20.56
2024-05-09T03:40:53.370Z,20.55
2024-05-09T03:43:20.916Z,20.52
2024-05-09T03:45:52.512Z,20.52
2024-05-09T03:48:20.270Z,20.50
2024-05-09T03:50:50.868Z,20.48
2024-05-09T03:53:18.685Z,20.47
2024-05-09T03:55:53.532Z,20.46
2024-05-09T03:58:21.088Z,20.43
2024-05-09T04:00:51.603Z,20.42
2024-05-09T04:03:19.540Z,20.42
2024-05-09T04:05:50.187Z,20.40
2024-05-09T04:08:19.035Z,20.39
2024-05-09T04:10:51.861Z,20.38
2024-05-09T04:13:19.506Z,20.37
2024-05-09T04:15:49.903Z,20.37
2024-05-09T04:18:17.813Z,20.35
2024-05-09T04:20:49.128Z,20.34
2024-05-09T04:23:16.909Z,20.33
2024-05-09T04:25:47.640Z,20.32
2024-05-09T04:28:19.209Z,20.32
2024-05-09T04:30:49.432Z,20.31
2024-05-09T04:33:18.705Z,20.29
2024-05-09T04:35:49.552Z,20.28
2024-05-09T04:38:17.427Z,20.28
2024-05-09T04:40:47.922Z,20.27
2024-05-09T04:43:19.612Z,20.28
2024-05-09T04:45:50.366Z,20.25
2024-05-09T04:48:18.052Z,20.25
2024-05-09T04:50:48.419Z,20.24
2024-05-09T04:53:17.530Z,20.25
2024-05-09T04:55:48.263Z,20.23
2024-05-09T04:58:18.658Z,20.23
2024-05-09T05:00:49.028Z,20.24
2024-05-09T05:03:17.169Z,20.23
2024-05-09T05:05:47.839Z,20.22
2024-05-09T05:08:18.189Z,20.23
2024-05-09T05:10:49.934Z,20.23
2024-05-09T05:13:21.665Z,20.24
2024-05-09T05:15:57.188Z,20.23
2024-05-09T05:18:26.889Z,20.23
2024-05-09T05:20:58.848Z,20.23
2024-05-09T05:23:26.645Z,20.24
2024-05-09T05:25:57.963Z,20.24
2024-05-09T05:28:28.202Z,20.24
2024-05-09T05:30:58.581Z,20.23
2024-05-09T05:33:28.963Z,20.23
2024-05-09T05:35:57.300Z,20.24
2024-05-09T05:38:28.603Z,20.24
2024-05-09T05:40:56.565Z,20.25
2024-05-09T05:43:26.808Z,20.25
2024-05-09T05:45:57.023Z,20.26
2024-05-09T05:48:27.421Z,20.26
2024-05-09T05:50:55.003Z,20.26
2024-05-09T05:53:25.381Z,20.28
2024-05-09T05:55:53.040Z,20.29
2024-05-09T05:58:23.143Z,20.31
2024-05-09T06:00:53.629Z,20.31
2024-05-09T06:03:26.607Z,20.33
2024-05-09T06:05:54.315Z,20.33
2024-05-09T06:08:27.111Z,20.35
2024-05-09T06:10:56.359Z,20.35
2024-05-09T06:13:26.634Z,20.36
2024-05-09T06:15:54.703Z,20.37
2024-05-09T06:18:27.631Z,20.39
2024-05-09T06:20:55.220Z,20.39
2024-05-09T06:23:25.464Z,20.42
2024-05-09T06:25:53.066Z,20.43
2024-05-09T06:28:23.183Z,20.46
2024-05-09T06:30:50.677Z,20.47
2024-05-09T06:33:21.144Z,20.49
2024-05-09T06:35:54.284Z,20.51
2024-05-09T06:38:24.665Z,20.50
2024-05-09T06:40:52.214Z,20.50
2024-05-09T06:43:22.322Z,20.51
2024-05-09T06:45:53.116Z,20.50
2024-05-09T06:48:24.422Z,20.49
2024-05-09T06:50:54.769Z,20.45
2024-05-09T06:53:26.478Z,20.43
2024-05-09T06:55:54.279Z,20.43
2024-05-09T06:58:24.477Z,20.42
2024-05-09T07:00:52.163Z,20.45
2024-05-09T07:03:22.644Z,20.47
2024-05-09T07:05:50.279Z,20.48
2024-05-09T07:08:23.159Z,20.50
2024-05-09T07:10:51.066Z,20.49
2024-05-09T07:13:21.200Z,20.49
2024-05-09T07:15:48.739Z,20.48
2024-05-09T07:18:21.007Z,20.50
2024-05-09T07:20:50.171Z,20.52
2024-05-09T07:23:23.485Z,20.54
2024-05-09T07:25:51.678Z,20.54
2024-05-09T07:28:24.763Z,20.56
2024-05-09T07:30:52.386Z,20.53
2024-05-09T07:33:24.552Z,20.53
2024-05-09T07:35:52.817Z,20.53
2024-05-09T07:38:25.995Z,20.56
2024-05-09T07:40:53.643Z,20.56
2024-05-09T07:43:23.861Z,20.60
2024-05-09T07:45:54.371Z,20.61
2024-05-09T07:50:00.249Z,20.65
2024-05-09T07:53:53.546Z,20.76
2024-05-09T07:56:24.509Z,20.80
2024-05-09T07:58:56.404Z,20.86
2024-05-09T08:01:26.485Z,20.93
2024-05-09T08:03:57.534Z,21.01
2024-05-09T08:06:26.157Z,21.08
2024-05-09T08:09:02.795Z,21.15
2024-05-09T08:11:33.076Z,21.22
2024-05-09T08:14:03.250Z,21.29
2024-05-09T08:16:30.835Z,21.35
2024-05-09T08:19:01.147Z,21.41
2024-05-09T08:21:29.714Z,21.47
2024-05-09T08:24:02.888Z,21.53
2024-05-09T08:26:31.023Z,21.59
2024-05-09T08:29:01.130Z,21.65
2024-05-09T08:31:29.274Z,21.68
2024-05-09T08:33:59.918Z,21.73
2024-05-09T08:36:27.694Z,21.77
2024-05-09T08:38:58.696Z,21.82
2024-05-09T08:41:30.126Z,21.90
2024-05-09T08:44:00.399Z,22.01
2024-05-09T08:46:30.607Z,22.10
2024-05-09T08:49:02.590Z,22.17
2024-05-09T08:51:30.338Z,22.27
2024-05-09T08:54:00.676Z,22.36
2024-05-09T08:56:35.498Z,22.45
2024-05-09T08:59:09.871Z,22.52
2024-05-09T09:01:40.123Z,22.59
2024-05-09T09:04:13.278Z,22.64
2024-05-09T09:06:41.296Z,22.69
2024-05-09T09:09:14.143Z,22.75
2024-05-09T09:11:44.370Z,22.79
2024-05-09T09:14:14.912Z,22.84
2024-05-09T09:16:42.353Z,22.89
2024-05-09T09:19:12.580Z,22.92
2024-05-09T09:21:40.128Z,22.97
2024-05-09T09:24:10.838Z,23.02
2024-05-09T09:26:38.319Z,23.06
2024-05-09T09:29:11.074Z,23.13
2024-05-09T09:31:39.365Z,23.20
2024-05-09T09:34:12.251Z,23.27
2024-05-09T09:36:42.486Z,23.31
2024-05-09T09:39:13.836Z,23.36
2024-05-09T09:41:44.415Z,23.44
2024-05-09T09:44:18.834Z,23.53
2024-05-09T09:46:47.577Z,23.60
2024-05-09T09:49:19.786Z,23.63
2024-05-09T09:51:48.474Z,23.70
2024-05-09T09:54:18.865Z,23.80
2024-05-09T09:56:48.607Z,23.89
2024-05-09T09:59:22.538Z,23.96
2024-05-09T10:01:50.348Z,24.03
2024-05-09T10:04:21.250Z,24.12
2024-05-09T10:06:53.339Z,24.20
2024-05-09T10:09:24.539Z,24.29
2024-05-09T10:11:59.376Z,24.36
2024-05-09T10:14:34.586Z,24.41
2024-05-09T10:17:05.563Z,24.48
2024-05-09T10:19:35.770Z,24.56
2024-05-09T10:22:04.445Z,24.64
2024-05-09T10:24:50.650Z,24.72
2024-05-09T10:27:26.979Z,24.78
2024-05-09T10:30:01.254Z,24.85
2024-05-09T10:32:30.452Z,24.92
2024-05-09T10:35:05.024Z,25.00
2024-05-09T10:37:33.484Z,25.08
2024-05-09T10:40:09.425Z,25.17
2024-05-09T10:42:42.076Z,25.27
2024-05-09T10:45:15.157Z,25.36
2024-05-09T10:47:43.424Z,25.40
2024-05-09T10:50:22.234Z,25.44
2024-05-09T10:52:55.758Z,25.44
2024-05-09T10:55:26.083Z,25.44
2024-05-09T10:57:53.755Z,25.46
2024-05-09T11:00:36.129Z,25.49
2024-05-09T11:03:05.412Z,25.50
2024-05-09T11:05:37.014Z,25.52
2024-05-09T11:08:05.781Z,25.51
2024-05-09T11:10:36.124Z,25.51
2024-05-09T11:13:03.718Z,25.48
2024-05-09T11:15:44.110Z,25.49
2024-05-09T11:18:24.642Z,25.48
2024-05-09T11:20:57.004Z,25.50
2024-05-09T11:23:26.425Z,25.47
2024-05-09T11:25:59.050Z,25.46
2024-05-09T11:28:29.068Z,25.48
2024-05-09T11:31:11.821Z,25.53
2024-05-09T11:33:42.206Z,25.55
2024-05-09T11:36:13.934Z,25.61
2024-05-09T11:38:41.708Z,25.64
2024-05-09T11:41:11.963Z,25.70
2024-05-09T11:43:39.538Z,25.78
2024-05-09T11:46:12.492Z,25.84
2024-05-09T11:48:43.188Z,25.86
2024-05-09T11:51:10.912Z,25.88
2024-05-09T11:53:41.092Z,25.88
2024-05-09T11:56:08.704Z,25.87
2024-05-09T11:58:41.559Z,25.91
2024-05-09T12:01:11.814Z,25.92
2024-05-09T12:03:42.483Z,25.96
2024-05-09T12:06:10.101Z,26.00
2024-05-09T12:08:40.728Z,26.07
2024-05-09T12:11:08.375Z,26.13
2024-05-09T12:13:38.800Z,26.17
2024-05-09T12:16:07.166Z,26.20
2024-05-09T12:18:40.310Z,26.23
2024-05-09T12:21:08.216Z,26.26
2024-05-09T12:23:38.421Z,26.32
2024-05-09T12:26:05.971Z,26.41
2024-05-09T12:28:36.602Z,26.47
2024-05-09T12:31:04.661Z,26.55
2024-05-09T12:33:34.896Z,26.61
2024-05-09T12:36:05.512Z,26.69
2024-05-09T12:38:35.617Z,26.77
2024-05-09T12:41:03.137Z,26.83
2024-05-09T12:43:33.656Z,26.90
2024-05-09T12:46:03.363Z,26.90
2024-05-09T12:48:33.830Z,26.89
2024-05-09T12:51:01.605Z,26.88
2024-05-09T12:53:34.670Z,26.85
2024-05-09T12:56:04.303Z,26.84
2024-05-09T12:58:35.876Z,26.82
2024-05-09T13:01:03.517Z,26.80
2024-05-09T13:03:34.044Z,26.76
2024-05-09T13:06:02.085Z,26.72
2024-05-09T13:08:35.186Z,26.70
2024-05-09T13:11:02.740Z,26.65
2024-05-09T13:13:33.162Z,26.61
2024-05-09T13:16:00.779Z,26.58
2024-05-09T13:18:31.054Z,26.62
2024-05-09T13:20:58.616Z,26.70
2024-05-09T13:23:28.730Z,26.75
2024-05-09T13:25:58.899Z,26.79
2024-05-09T13:28:31.901Z,26.86
2024-05-09T13:30:59.583Z,26.88
2024-05-09T13:33:30.417Z,26.92
2024-05-09T13:35:58.036Z,26.96
2024-05-09T13:38:28.857Z,27.03
2024-05-09T13:40:59.018Z,27.10
2024-05-09T13:43:29.681Z,27.17
2024-05-09T13:45:57.421Z,27.28
2024-05-09T13:48:28.287Z,27.36
2024-05-09T13:50:56.704Z,27.44
2024-05-09T13:53:27.661Z,27.50
2024-05-09T13:55:55.375Z,27.52
2024-05-09T13:58:28.271Z,27.53
2024-05-09T14:00:56.028Z,27.55
2024-05-09T14:03:27.030Z,27.60
2024-05-09T14:05:54.847Z,27.66
2024-05-09T14:08:25.628Z,27.71
2024-05-09T14:10:53.783Z,27.71
2024-05-09T14:13:24.158Z,27.71
2024-05-09T14:15:54.698Z,27.71
2024-05-09T14:18:25.380Z,27.71
2024-05-09T14:20:53.037Z,27.74
2024-05-09T14:23:23.435Z,27.77
2024-05-09T14:25:53.097Z,27.77
2024-05-09T14:28:26.264Z,27.76
2024-05-09T14:30:57.211Z,27.79
2024-05-09T14:33:28.168Z,27.79
2024-05-09T14:35:56.176Z,27.79
2024-05-09T14:38:27.238Z,27.78
2024-05-09T14:40:54.923Z,27.76
2024-05-09T14:43:25.382Z,27.76
2024-05-09T14:45:53.592Z,27.79
2024-05-09T14:48:26.965Z,27.83
2024-05-09T14:50:54.771Z,27.80
2024-05-09T14:53:26.566Z,27.76
2024-05-09T14:55:54.587Z,27.75
2024-05-09T14:58:24.862Z,27.73
2024-05-09T15:00:52.747Z,27.71
2024-05-09T15:03:27.267Z,27.70
2024-05-09T15:05:54.947Z,27.67
2024-05-09T15:08:25.607Z,27.64
2024-05-09T15:10:53.423Z,27.57
2024-05-09T15:13:24.230Z,27.56
2024-05-09T15:15:52.197Z,27.54
2024-05-09T15:18:22.930Z,27.52
2024-05-09T15:20:53.488Z,27.52
2024-05-09T15:23:24.314Z,27.50
2024-05-09T15:25:51.904Z,27.49
2024-05-09T15:28:22.442Z,27.48
2024-05-09T15:30:50.032Z,27.47
2024-05-09T15:33:20.865Z,27.48
2024-05-09T15:35:48.513Z,27.48
2024-05-09T15:38:21.326Z,27.50
2024-05-09T15:40:49.086Z,27.47
2024-05-09T15:43:19.553Z,27.46
2024-05-09T15:45:47.711Z,27.44
2024-05-09T15:48:18.572Z,27.41
2024-05-09T15:50:46.392Z,27.41
2024-05-09T15:53:20.463Z,27.39
2024-05-09T15:55:47.950Z,27.37
2024-05-09T15:58:18.749Z,27.36
2024-05-09T16:00:48.684Z,27.35
2024-05-09T16:03:21.329Z,27.33
2024-05-09T16:05:50.606Z,27.29
2024-05-09T16:08:23.473Z,27.28
2024-05-09T16:10:52.130Z,27.28
2024-05-09T16:13:22.849Z,27.25
2024-05-09T16:15:51.088Z,27.21
2024-05-09T16:18:21.539Z,27.17
2024-05-09T16:20:50.328Z,27.14
2024-05-09T16:23:23.708Z,27.11
2024-05-09T16:25:51.900Z,27.06
2024-05-09T16:28:23.126Z,27.02
2024-05-09T16:30:52.428Z,26.99
2024-05-09T16:33:23.963Z,26.95
2024-05-09T16:35:51.738Z,26.95
2024-05-09T16:38:25.095Z,26.95
2024-05-09T16:40:52.925Z,26.93
2024-05-09T16:43:24.251Z,26.90
2024-05-09T16:45:51.932Z,26.91
2024-05-09T16:48:22.801Z,26.88
2024-05-09T16:50:50.337Z,26.87
2024-05-09T16:53:25.688Z,26.87
2024-05-09T16:55:53.453Z,26.87
2024-05-09T16:58:23.867Z,26.88
2024-05-09T17:00:51.691Z,26.88
2024-05-09T17:03:22.411Z,26.85
2024-05-09T17:05:50.769Z,26.83
2024-05-09T17:08:21.139Z,26.80
2024-05-09T17:10:51.695Z,26.77
2024-05-09T17:13:22.806Z,26.75
2024-05-09T17:15:53.584Z,26.71
2024-05-09T17:18:24.336Z,26.68
2024-05-09T17:20:52.468Z,26.65
2024-05-09T17:23:22.681Z,26.64
2024-05-09T17:25:52.960Z,26.66
2024-05-09T17:28:23.516Z,26.64
2024-05-09T17:30:53.795Z,26.65
2024-05-09T17:33:21.541Z,26.65
2024-05-09T17:35:53.111Z,26.65
2024-05-09T17:38:22.972Z,26.63
2024-05-09T17:40:56.402Z,26.63
2024-05-09T17:43:24.534Z,26.62
2024-05-09T17:45:54.884Z,26.60
2024-05-09T17:48:22.774Z,26.60
2024-05-09T17:50:54.084Z,26.60
2024-05-09T17:53:21.841Z,26.58
2024-05-09T17:55:53.917Z,26.60
2024-05-09T17:58:24.374Z,26.58
2024-05-09T18:00:55.321Z,26.56
2024-05-09T18:03:23.504Z,26.56
2024-05-09T18:05:54.875Z,26.55
2024-05-09T18:08:22.555Z,26.54
2024-05-09T18:10:55.235Z,26.54
2024-05-09T18:13:26.260Z,26.54
2024-05-09T18:15:57.101Z,26.53
2024-05-09T18:18:24.842Z,26.51
2024-05-09T18:20:55.221Z,26.50
2024-05-09T18:23:23.217Z,26.44
2024-05-09T18:25:54.717Z,26.44
2024-05-09T18:28:25.281Z,26.40
2024-05-09T18:30:55.832Z,26.37
2024-05-09T18:33:24.488Z,26.32
2024-05-09T18:35:54.781Z,26.27
2024-05-09T18:38:26.697Z,26.26
2024-05-09T18:40:57.404Z,26.23
2024-05-09T18:43:38.442Z,26.21
2024-05-09T18:46:15.124Z,26.19
2024-05-09T18:48:42.843Z,26.19
2024-05-09T18:51:14.549Z,26.18
2024-05-09T18:53:43.362Z,26.18
2024-05-09T18:56:15.179Z,26.18
2024-05-09T18:58:46.809Z,26.18
2024-05-09T19:01:17.129Z,26.18
2024-05-09T19:03:44.893Z,26.18
2024-05-09T19:06:15.351Z,26.18
2024-05-09T19:08:42.910Z,26.18
2024-05-09T19:11:13.029Z,26.19
2024-05-09T19:13:40.614Z,26.20
2024-05-09T19:16:14.097Z,26.20
2024-05-09T19:18:42.322Z,26.19
2024-05-09T19:21:14.309Z,26.18
2024-05-09T19:23:47.162Z,26.19
2024-05-09T19:26:22.514Z,26.18
2024-05-09T19:28:50.187Z,26.17
2024-05-09T19:31:23.102Z,26.17
2024-05-09T19:33:50.782Z,26.14
2024-05-09T19:36:21.598Z,26.13
2024-05-09T19:38:51.373Z,26.12
2024-05-09T19:41:21.530Z,26.10
2024-05-09T19:43:49.095Z,26.08
2024-05-09T19:46:23.627Z,26.07
2024-05-09T19:48:51.654Z,26.03
2024-05-09T19:51:22.080Z,26.01
2024-05-09T19:53:50.681Z,26.00
2024-05-09T19:56:20.846Z,25.98
2024-05-09T19:58:48.426Z,25.98
2024-05-09T20:01:19.039Z,25.95
2024-05-09T20:03:49.538Z,25.94
2024-05-09T20:06:24.303Z,25.93
2024-05-09T20:08:53.639Z,25.89
2024-05-09T20:11:24.085Z,25.86
2024-05-09T20:13:51.839Z,25.84
2024-05-09T20:16:22.425Z,25.82
2024-05-09T20:18:52.894Z,25.80
2024-05-09T20:21:23.984Z,25.78
2024-05-09T20:23:51.453Z,25.76
2024-05-09T20:26:21.585Z,25.73
2024-05-09T20:28:49.172Z,25.72
2024-05-09T20:31:24.010Z,25.70
2024-05-09T20:33:54.726Z,25.67
2024-05-09T20:36:25.064Z,25.64
2024-05-09T20:38:52.611Z,25.64
2024-05-09T20:41:22.961Z,25.63
2024-05-09T20:43:50.519Z,25.62
2024-05-09T20:46:20.821Z,25.61
2024-05-09T20:48:48.722Z,25.56
2024-05-09T20:51:21.632Z,25.50
2024-05-09T20:53:49.202Z,25.44
2024-05-09T20:56:19.525Z,25.37
2024-05-09T20:58:47.176Z,25.34
2024-05-09T21:01:17.769Z,25.27
2024-05-09T21:03:45.377Z,25.22
2024-05-09T21:06:15.636Z,25.17
2024-05-09T21:08:46.042Z,25.12
2024-05-09T21:11:16.236Z,25.07
2024-05-09T21:13:43.760Z,25.00
2024-05-09T21:16:13.934Z,24.94
2024-05-09T21:18:41.676Z,24.89
2024-05-09T21:21:11.854Z,24.85
2024-05-09T21:23:39.348Z,24.78
2024-05-09T21:26:13.610Z,24.74
2024-05-09T21:28:44.086Z,24.68
2024-05-09T21:31:14.376Z,24.65
2024-05-09T21:33:42.206Z,24.62
2024-05-09T21:36:12.711Z,24.61
2024-05-09T21:38:40.983Z,24.57
2024-05-09T21:41:14.098Z,24.56
2024-05-09T21:43:41.685Z,24.55
2024-05-09T21:46:11.952Z,24.54
2024-05-09T21:48:39.777Z,24.56
2024-05-09T21:51:16.525Z,24.56
2024-05-09T21:53:44.173Z,24.54
2024-05-09T21:56:16.938Z,24.53
2024-05-09T21:58:44.477Z,24.52
2024-05-09T22:01:14.802Z,24.52
2024-05-09T22:03:42.558Z,24.50
2024-05-09T22:06:13.067Z,24.48
2024-05-09T22:08:40.518Z,24.50
2024-05-09T22:11:11.202Z,24.48
2024-05-09T22:13:41.553Z,24.50
2024-05-09T22:16:12.074Z,24.47
2024-05-09T22:18:40.108Z,24.46
2024-05-09T22:21:10.868Z,24.47
2024-05-09T22:23:38.412Z,24.47
2024-05-09T22:26:09.081Z,24.48
2024-05-09T22:28:36.806Z,24.51
2024-05-09T22:31:11.977Z,24.51
2024-05-09T22:33:40.057Z,24.51
2024-05-09T22:36:11.367Z,24.49
2024-05-09T22:38:39.274Z,24.48
2024-05-09T22:41:10.296Z,24.48
2024-05-09T22:43:38.278Z,24.50
2024-05-09T22:46:11.516Z,24.51
2024-05-09T22:48:39.488Z,24.48
2024-05-09T22:51:10.105Z,24.47
2024-05-09T22:53:37.674Z,24.48
2024-05-09T22:56:08.805Z,24.46
2024-05-09T22:58:36.332Z,24.45
2024-05-09T23:01:07.439Z,24.45
2024-05-09T23:03:39.625Z,24.46
2024-05-09T23:06:10.772Z,24.43
2024-05-09T23:08:38.323Z,24.42
2024-05-09T23:11:08.857Z,24.40
2024-05-09T23:13:36.825Z,24.40
2024-05-09T23:16:08.352Z,24.39
2024-05-09T23:18:38.719Z,24.38
2024-05-09T23:21:09.417Z,24.36
2024-05-09T23:23:36.980Z,24.35
2024-05-09T23:26:07.433Z,24.32
2024-05-09T23:28:35.290Z,24.30
2024-05-09T23:31:05.489Z,24.29
2024-05-09T23:33:33.380Z,24.27
2024-05-09T23:36:06.747Z,24.25
2024-05-09T23:38:34.376Z,24.23
2024-05-09T23:41:04.606Z,24.20
2024-05-09T23:43:32.247Z,24.19
2024-05-09T23:46:02.539Z,24.16
2024-05-09T23:48:30.370Z,24.16
2024-05-09T23:51:00.779Z,24.13
2024-05-09T23:53:30.958Z,24.11
2024-05-09T23:56:01.417Z,24.09
2024-05-09T23:58:29.394Z,24.07
